Time,TemperatureF,DewpointF,PressureIn,WindDirection,WindDirectionDegrees,WindSpeedMPH,WindSpeedGustMPH,Humidity,HourlyPrecipIn,Conditions,Clouds,dailyrainin,SolarRadiationWatts/m^2,SoftwareType,DateUTC
2013-02-14 00:01:00,30.0,9.0,-100.00,NE,41,2.0,7.0,40,0.00,,,0.00,1.000000,,2013-02-14 07:01:00,
2013-02-14 00:11:00,30.0,9.0,-100.00,NE,41,2.0,7.0,40,0.00,,,0.00,1.000000,,2013-02-14 07:11:00,
2013-02-14 00:21:00,30.0,9.0,-100.00,NE,41,2.0,7.0,40,0.00,,,0.00,1.000000,,2013-02-14 07:21:00,
2013-02-14 00:52:00,32.0,9.0,-100.00,NE,50,2.0,7.0,37,0.00,,,0.00,1.000000,,2013-02-14 07:52:00,
2013-02-14 01:01:00,32.0,9.0,-100.00,NE,50,2.0,7.0,37,0.00,,,0.00,1.000000,,2013-02-14 08:01:00,
2013-02-14 01:11:00,32.0,9.0,-100.00,NE,50,2.0,7.0,37,0.00,,,0.00,1.000000,,2013-02-14 08:11:00,
2013-02-14 01:21:00,32.0,9.0,-100.00,NE,50,2.0,7.0,37,0.00,,,0.00,1.000000,,2013-02-14 08:21:00,
2013-02-14 01:52:00,29.0,8.0,-100.00,SSW,192,2.0,6.0,41,0.00,,,0.00,1.000000,,2013-02-14 08:52:00,
2013-02-14 02:02:00,29.0,8.0,-100.00,SSW,192,2.0,6.0,41,0.00,,,0.00,1.000000,,2013-02-14 09:02:00,
2013-02-14 02:11:00,29.0,8.0,-100.00,SSW,192,2.0,6.0,41,0.00,,,0.00,1.000000,,2013-02-14 09:11:00,
2013-02-14 02:21:00,29.0,8.0,-100.00,SSW,192,2.0,6.0,41,0.00,,,0.00,1.000000,,2013-02-14 09:21:00,
2013-02-14 02:52:00,28.0,9.0,-100.00,West,268,2.0,6.0,44,0.00,,,0.00,1.000000,,2013-02-14 09:52:00,
2013-02-14 03:02:00,28.0,9.0,-100.00,West,268,2.0,6.0,44,0.00,,,0.00,1.000000,,2013-02-14 10:02:00,
2013-02-14 03:11:00,28.0,9.0,-100.00,West,268,2.0,6.0,44,0.00,,,0.00,1.000000,,2013-02-14 10:11:00,
2013-02-14 03:21:00,28.0,9.0,-100.00,West,268,2.0,6.0,44,0.00,,,0.00,1.000000,,2013-02-14 10:21:00,
2013-02-14 03:52:00,26.0,11.0,-100.00,West,280,2.0,6.0,52,0.00,,,0.00,1.000000,,2013-02-14 10:52:00,
2013-02-14 04:02:00,26.0,11.0,-100.00,West,280,2.0,6.0,52,0.00,,,0.00,1.000000,,2013-02-14 11:02:00,
2013-02-14 04:11:00,26.0,11.0,-100.00,West,280,2.0,6.0,52,0.00,,,0.00,1.000000,,2013-02-14 11:11:00,
2013-02-14 04:21:00,26.0,11.0,-100.00,West,280,2.0,6.0,52,0.00,,,0.00,1.000000,,2013-02-14 11:21:00,
2013-02-14 04:52:00,25.0,11.0,-100.00,ENE,70,1.0,9.0,55,0.00,,,0.00,1.000000,,2013-02-14 11:52:00,
2013-02-14 05:02:00,25.0,11.0,-100.00,ENE,70,1.0,9.0,55,0.00,,,0.00,1.000000,,2013-02-14 12:02:00,
2013-02-14 05:12:00,25.0,11.0,-100.00,ENE,70,1.0,9.0,55,0.00,,,0.00,1.000000,,2013-02-14 12:12:00,
2013-02-14 05:22:00,25.0,11.0,-100.00,ENE,70,1.0,9.0,55,0.00,,,0.00,1.000000,,2013-02-14 12:22:00,
2013-02-14 05:53:00,28.0,11.0,-100.00,NNW,329,5.0,19.0,48,0.00,,,0.00,1.000000,,2013-02-14 12:53:00,
2013-02-14 06:02:00,28.0,11.0,-100.00,NNW,329,5.0,19.0,48,0.00,,,0.00,1.000000,,2013-02-14 13:02:00,
2013-02-14 06:11:00,28.0,11.0,-100.00,NNW,329,5.0,19.0,48,0.00,,,0.00,1.000000,,2013-02-14 13:11:00,
2013-02-14 06:21:00,28.0,11.0,-100.00,NNW,329,5.0,19.0,48,0.00,,,0.00,1.000000,,2013-02-14 13:21:00,
2013-02-14 06:52:00,28.0,9.0,-100.00,North,356,2.0,10.0,45,0.00,,,0.00,1.000000,,2013-02-14 13:52:00,
2013-02-14 07:01:00,28.0,9.0,-100.00,North,356,2.0,10.0,45,0.00,,,0.00,1.000000,,2013-02-14 14:01:00,
2013-02-14 07:11:00,28.0,9.0,-100.00,North,356,2.0,10.0,45,0.00,,,0.00,1.000000,,2013-02-14 14:11:00,
2013-02-14 07:21:00,28.0,9.0,-100.00,North,356,2.0,10.0,45,0.00,,,0.00,1.000000,,2013-02-14 14:21:00,
2013-02-14 07:52:00,28.0,9.0,-100.00,NNW,344,2.0,6.0,44,0.00,,,0.00,1.000000,,2013-02-14 14:52:00,
2013-02-14 08:02:00,28.0,9.0,-100.00,NNW,344,2.0,6.0,44,0.00,,,0.00,1.000000,,2013-02-14 15:02:00,
2013-02-14 08:11:00,28.0,9.0,-100.00,NNW,344,2.0,6.0,44,0.00,,,0.00,1.000000,,2013-02-14 15:11:00,
2013-02-14 08:21:00,28.0,9.0,-100.00,NNW,344,2.0,6.0,44,0.00,,,0.00,1.000000,,2013-02-14 15:21:00,
2013-02-14 08:52:00,27.0,9.0,-100.00,WNW,284,2.0,4.0,46,0.00,,,0.00,21.000000,,2013-02-14 15:52:00,
2013-02-14 09:02:00,27.0,9.0,-100.00,WNW,284,2.0,4.0,46,0.00,,,0.00,21.000000,,2013-02-14 16:02:00,
2013-02-14 09:11:00,27.0,9.0,-100.00,WNW,284,2.0,4.0,46,0.00,,,0.00,21.000000,,2013-02-14 16:11:00,
2013-02-14 09:21:00,27.0,9.0,-100.00,WNW,284,2.0,4.0,46,0.00,,,0.00,21.000000,,2013-02-14 16:21:00,
2013-02-14 09:52:00,35.0,11.0,-100.00,WSW,254,2.0,4.0,37,0.00,,,0.00,155.000000,,2013-02-14 16:52:00,
2013-02-14 10:01:00,35.0,11.0,-100.00,WSW,254,2.0,4.0,37,0.00,,,0.00,155.000000,,2013-02-14 17:01:00,
2013-02-14 10:11:00,35.0,11.0,-100.00,WSW,254,2.0,4.0,37,0.00,,,0.00,155.000000,,2013-02-14 17:11:00,
2013-02-14 10:21:00,35.0,11.0,-100.00,WSW,254,2.0,4.0,37,0.00,,,0.00,155.000000,,2013-02-14 17:21:00,
2013-02-14 10:52:00,29.0,16.0,-100.00,ESE,110,4.0,10.0,57,0.00,,,0.00,351.000000,,2013-02-14 17:52:00,
2013-02-14 11:01:00,29.0,16.0,-100.00,ESE,110,4.0,10.0,57,0.00,,,0.00,351.000000,,2013-02-14 18:01:00,
2013-02-14 11:11:00,29.0,16.0,-100.00,ESE,110,4.0,10.0,57,0.00,,,0.00,351.000000,,2013-02-14 18:11:00,
2013-02-14 11:23:00,29.0,16.0,-100.00,ESE,110,4.0,10.0,57,0.00,,,0.00,351.000000,,2013-02-14 18:23:00,
2013-02-14 11:52:00,27.0,19.0,-100.00,East,87,5.0,9.0,71,0.00,,,0.00,202.000000,,2013-02-14 18:52:00,
2013-02-14 12:02:00,27.0,19.0,-100.00,East,87,5.0,9.0,71,0.00,,,0.00,202.000000,,2013-02-14 19:02:00,
2013-02-14 12:11:00,27.0,19.0,-100.00,East,87,5.0,9.0,71,0.00,,,0.00,202.000000,,2013-02-14 19:11:00,
2013-02-14 12:21:00,27.0,19.0,-100.00,East,87,5.0,9.0,71,0.00,,,0.00,202.000000,,2013-02-14 19:21:00,
2013-02-14 12:52:00,21.0,19.0,-100.00,ESE,105,5.0,13.0,90,0.00,,,0.00,83.000000,,2013-02-14 19:52:00,
2013-02-14 13:01:00,21.0,19.0,-100.00,ESE,105,5.0,13.0,90,0.00,,,0.00,83.000000,,2013-02-14 20:01:00,
2013-02-14 13:11:00,21.0,19.0,-100.00,ESE,105,5.0,13.0,90,0.00,,,0.00,83.000000,,2013-02-14 20:11:00,
2013-02-14 13:21:00,21.0,19.0,-100.00,ESE,105,5.0,13.0,90,0.00,,,0.00,83.000000,,2013-02-14 20:21:00,
2013-02-14 13:52:00,22.0,18.0,-100.00,East,85,4.0,10.0,86,0.00,,,0.00,142.000000,,2013-02-14 20:52:00,
2013-02-14 14:02:00,22.0,18.0,-100.00,East,85,4.0,10.0,86,0.00,,,0.00,142.000000,,2013-02-14 21:02:00,
2013-02-14 14:11:00,22.0,18.0,-100.00,East,85,4.0,10.0,86,0.00,,,0.00,142.000000,,2013-02-14 21:11:00,
2013-02-14 14:21:00,22.0,18.0,-100.00,East,85,4.0,10.0,86,0.00,,,0.00,142.000000,,2013-02-14 21:21:00,
2013-02-14 14:52:00,22.0,18.0,-100.00,East,90,3.0,8.0,86,0.00,,,0.00,101.000000,,2013-02-14 21:52:00,
2013-02-14 15:02:00,22.0,18.0,-100.00,East,90,3.0,8.0,86,0.00,,,0.00,101.000000,,2013-02-14 22:02:00,
2013-02-14 15:11:00,22.0,18.0,-100.00,East,90,3.0,8.0,86,0.00,,,0.00,101.000000,,2013-02-14 22:11:00,
2013-02-14 15:21:00,22.0,18.0,-100.00,East,90,3.0,8.0,86,0.00,,,0.00,101.000000,,2013-02-14 22:21:00,
2013-02-14 15:52:00,22.0,19.0,-100.00,ESE,108,2.0,7.0,87,0.00,,,0.00,62.000000,,2013-02-14 22:52:00,
2013-02-14 16:01:00,22.0,19.0,-100.00,ESE,108,2.0,7.0,87,0.00,,,0.00,62.000000,,2013-02-14 23:01:00,
2013-02-14 16:11:00,22.0,19.0,-100.00,ESE,108,2.0,7.0,87,0.00,,,0.00,62.000000,,2013-02-14 23:11:00,
2013-02-14 16:21:00,22.0,19.0,-100.00,ESE,108,2.0,7.0,87,0.00,,,0.00,62.000000,,2013-02-14 23:21:00,
2013-02-14 16:52:00,21.0,18.0,-100.00,East,96,2.0,6.0,87,0.00,,,0.00,36.000000,,2013-02-14 23:52:00,
2013-02-14 17:01:00,21.0,18.0,-100.00,East,96,2.0,6.0,87,0.00,,,0.00,36.000000,,2013-02-15 00:01:00,
2013-02-14 17:11:00,21.0,18.0,-100.00,East,96,2.0,6.0,87,0.00,,,0.00,36.000000,,2013-02-15 00:11:00,
2013-02-14 17:22:00,21.0,18.0,-100.00,East,96,2.0,6.0,87,0.00,,,0.00,36.000000,,2013-02-15 00:22:00,
2013-02-14 17:52:00,20.0,17.0,-100.00,East,86,2.0,5.0,89,0.00,,,0.00,19.000000,,2013-02-15 00:52:00,
2013-02-14 18:02:00,20.0,17.0,-100.00,East,86,2.0,5.0,89,0.00,,,0.00,19.000000,,2013-02-15 01:02:00,
2013-02-14 18:11:00,20.0,17.0,-100.00,East,86,2.0,5.0,89,0.00,,,0.00,19.000000,,2013-02-15 01:11:00,
2013-02-14 18:21:00,20.0,17.0,-100.00,East,86,2.0,5.0,89,0.00,,,0.00,19.000000,,2013-02-15 01:21:00,
2013-02-14 18:52:00,18.0,16.0,-100.00,East,79,1.0,5.0,90,0.00,,,0.00,2.000000,,2013-02-15 01:52:00,
2013-02-14 19:01:00,18.0,16.0,-100.00,East,79,1.0,5.0,90,0.00,,,0.00,2.000000,,2013-02-15 02:01:00,
2013-02-14 19:11:00,18.0,16.0,-100.00,East,79,1.0,5.0,90,0.00,,,0.00,2.000000,,2013-02-15 02:11:00,
2013-02-14 19:21:00,18.0,16.0,-100.00,East,79,1.0,5.0,90,0.00,,,0.00,2.000000,,2013-02-15 02:21:00,
2013-02-14 19:52:00,17.0,15.0,-100.00,East,79,2.0,5.0,90,0.00,,,0.00,1.000000,,2013-02-15 02:52:00,
2013-02-14 20:02:00,17.0,15.0,-100.00,East,79,2.0,5.0,90,0.00,,,0.00,1.000000,,2013-02-15 03:02:00,
2013-02-14 20:11:00,17.0,15.0,-100.00,East,79,2.0,5.0,90,0.00,,,0.00,1.000000,,2013-02-15 03:11:00,
2013-02-14 20:22:00,17.0,15.0,-100.00,East,79,2.0,5.0,90,0.00,,,0.00,1.000000,,2013-02-15 03:22:00,
2013-02-14 20:52:00,17.0,14.0,-100.00,ENE,64,0.0,4.0,89,0.00,,,0.00,1.000000,,2013-02-15 03:52:00,
2013-02-14 21:01:00,17.0,14.0,-100.00,ENE,64,0.0,4.0,89,0.00,,,0.00,1.000000,,2013-02-15 04:01:00,
2013-02-14 21:11:00,17.0,14.0,-100.00,ENE,64,0.0,4.0,89,0.00,,,0.00,1.000000,,2013-02-15 04:11:00,
2013-02-14 21:21:00,17.0,14.0,-100.00,ENE,64,0.0,4.0,89,0.00,,,0.00,1.000000,,2013-02-15 04:21:00,
2013-02-14 21:52:00,16.0,13.0,-100.00,WNW,284,1.0,2.0,89,0.00,,,0.00,1.000000,,2013-02-15 04:52:00,
2013-02-14 22:02:00,16.0,13.0,-100.00,WNW,284,1.0,2.0,89,0.00,,,0.00,1.000000,,2013-02-15 05:02:00,
2013-02-14 22:12:00,16.0,13.0,-100.00,WNW,284,1.0,2.0,89,0.00,,,0.00,1.000000,,2013-02-15 05:12:00,
2013-02-14 22:22:00,16.0,13.0,-100.00,WNW,284,1.0,2.0,89,0.00,,,0.00,1.000000,,2013-02-15 05:22:00,
2013-02-14 22:52:00,15.0,12.0,-100.00,WNW,287,2.0,4.0,87,0.00,,,0.00,1.000000,,2013-02-15 05:52:00,
2013-02-14 23:02:00,15.0,12.0,-100.00,WNW,287,2.0,4.0,87,0.00,,,0.00,1.000000,,2013-02-15 06:02:00,
2013-02-14 23:11:00,15.0,12.0,-100.00,WNW,287,2.0,4.0,87,0.00,,,0.00,1.000000,,2013-02-15 06:11:00,
2013-02-14 23:22:00,15.0,12.0,-100.00,WNW,287,2.0,4.0,87,0.00,,,0.00,1.000000,,2013-02-15 06:22:00,
2013-02-14 23:52:00,13.0,10.0,-100.00,West,276,2.0,4.0,87,0.00,,,0.00,1.000000,,2013-02-15 06:52:00,